Time;durP1;ratioP1;P1;durP2;ratioP2;P2;SDS_P1;SDS_P2;PMS_P1;PMS_P2;Temp;Humidity;BMP_temperature;BMP_pressure;BME280_temperature;BME280_humidity;BME280_pressure;Samples;Min_cycle;Max_cycle;Signal;HPM_P1;HPM_P2
2023/07/01 00:01:24;;;;;;;;;;;;;;;16.74;45.13;100359.97;5079024;28;1071;-48
2023/07/01 00:03:50;;;;;;;;;;;;;;;16.68;45.14;100363.88;5078948;28;1459;-47
2023/07/01 00:06:15;;;;;;;;;;;;;;;17.54;46.45;100357.16;5077917;28;1062;-46
2023/07/01 00:08:41;;;;;;;;;;;;;;;17.07;46.82;100363.09;5072307;28;1921;-47
2023/07/01 00:11:07;;;;;;;;;;;;;;;16.94;46.17;100358.22;5078949;28;1169;-49
2023/07/01 00:13:32;;;;;;;;;;;;;;;16.81;46.09;100359.66;5078314;28;1055;-51
2023/07/01 00:15:58;;;;;;;;;;;;;;;16.81;45.72;100350.63;5078575;28;1032;-49
2023/07/01 00:18:24;;;;;;;;;;;;;;;17.01;46.05;100356.00;5078302;28;1122;-51
2023/07/01 00:20:49;;;;;;;;;;;;;;;17.34;46.83;100350.75;5077187;28;1039;-49
2023/07/01 00:23:15;;;;;;;;;;;;;;;17.03;46.72;100355.72;5071642;28;1089;-49
2023/07/01 00:25:40;;;;;;;;;;;;;;;16.99;46.13;100349.16;5071750;28;1167;-47
2023/07/01 00:28:06;;;;;;;;;;;;;;;16.86;46.03;100345.09;5078453;28;1909;-51
2023/07/01 00:30:32;;;;;;;;;;;;;;;16.85;45.64;100348.94;5060146;28;1212;-51
2023/07/01 00:32:57;;;;;;;;;;;;;;;16.67;45.85;100348.50;5059981;28;1230;-48
2023/07/01 00:35:23;;;;;;;;;;;;;;;16.76;45.20;100346.81;5078528;28;999;-50
2023/07/01 00:37:49;;;;;;;;;;;;;;;16.69;45.24;100343.56;5058248;28;1040;-49
2023/07/01 00:40:15;;;;;;;;;;;;;;;16.60;45.27;100346.06;5071510;28;1026;-50
2023/07/01 00:42:40;;;;;;;;;;;;;;;17.53;46.23;100350.03;5078437;28;1197;-49
2023/07/01 00:45:06;;;;;;;;;;;;;;;17.02;46.79;100343.88;5060025;28;1095;-51
2023/07/01 00:47:32;;;;;;;;;;;;;;;16.84;46.23;100341.81;5056520;28;1124;-50
2023/07/01 00:49:57;;;;;;;;;;;;;;;16.85;45.77;100346.19;5070966;28;1901;-48
2023/07/01 00:52:24;;;;;;;;;;;;;;;16.70;45.72;100339.69;5078533;28;1127;-51
2023/07/01 00:54:49;;;;;;;;;;;;;;;16.74;45.25;100343.50;5059885;28;1126;-50
2023/07/01 00:57:15;;;;;;;;;;;;;;;16.57;45.46;100343.91;5077518;28;856;-52
2023/07/01 00:59:40;;;;;;;;;;;;;;;16.63;45.10;100347.44;5077568;28;1491;-51
2023/07/01 01:02:08;;;;;;;;;;;;;;;16.56;45.13;100344.19;5064531;28;1047;-50
2023/07/01 01:04:35;;;;;;;;;;;;;;;16.55;45.10;100345.28;5077739;28;1038;-49
2023/07/01 01:07:09;;;;;;;;;;;;;;;16.63;45.05;100341.94;5078324;28;1117;-51
2023/07/01 01:09:39;;;;;;;;;;;;;;;17.25;46.91;100338.75;5057736;28;1973;-49
2023/07/01 01:12:05;;;;;;;;;;;;;;;16.87;46.87;100339.31;5059537;28;1323;-50
2023/07/01 01:14:33;;;;;;;;;;;;;;;16.80;46.28;100330.56;5059345;28;1143;-52
2023/07/01 01:16:59;;;;;;;;;;;;;;;16.69;45.90;100326.25;5059888;28;1063;-50
2023/07/01 01:19:28;;;;;;;;;;;;;;;16.72;45.48;100329.25;5059282;28;2270;-50
2023/07/01 01:22:23;;;;;;;;;;;;;;;17.12;45.82;100323.75;5059243;28;858;-48
2023/07/01 01:24:53;;;;;;;;;;;;;;;16.98;47.16;100331.84;5055282;28;1283;-48
2023/07/01 01:27:22;;;;;;;;;;;;;;;16.90;46.38;100329.69;5059452;28;1146;-46
2023/07/01 01:29:47;;;;;;;;;;;;;;;16.71;46.18;100332.28;5059477;28;1972;-47
2023/07/01 01:32:13;;;;;;;;;;;;;;;16.67;45.85;100331.22;5075877;28;1154;-50
2023/07/01 01:34:38;;;;;;;;;;;;;;;16.58;45.52;100333.75;5077015;28;1098;-49
2023/07/01 01:37:05;;;;;;;;;;;;;;;16.68;45.15;100341.91;5076943;28;1046;-49
2023/07/01 01:39:31;;;;;;;;;;;;;;;16.61;45.08;100335.94;5059848;28;1198;-52
2023/07/01 01:42:02;;;;;;;;;;;;;;;17.83;45.96;100334.34;5058772;28;1068;-51
2023/07/01 01:44:31;;;;;;;;;;;;;;;17.01;47.18;100331.28;5076837;28;1185;-48
2023/07/01 01:46:57;;;;;;;;;;;;;;;16.84;46.55;100322.59;5059023;28;1539;-50
2023/07/01 01:49:22;;;;;;;;;;;;;;;16.80;46.06;100332.50;5076750;28;1974;-49
2023/07/01 01:51:48;;;;;;;;;;;;;;;16.76;45.83;100324.84;5058445;28;2714;-47
2023/07/01 01:54:13;;;;;;;;;;;;;;;17.78;46.25;100324.19;5059225;28;1059;-49
2023/07/01 01:56:39;;;;;;;;;;;;;;;17.15;47.04;100325.09;5058167;28;1059;-48
2023/07/01 01:59:04;;;;;;;;;;;;;;;16.85;46.72;100333.28;5058593;28;1035;-53
2023/07/01 02:01:30;;;;;;;;;;;;;;;16.80;46.29;100327.81;5058439;28;1335;-52
2023/07/01 02:03:56;;;;;;;;;;;;;;;16.73;45.98;100319.94;5076429;28;1126;-50
2023/07/01 02:06:21;;;;;;;;;;;;;;;16.75;45.55;100314.97;5076554;28;1095;-47
2023/07/01 02:08:47;;;;;;;;;;;;;;;16.64;45.47;100324.38;5058264;28;1906;-50
2023/07/01 02:11:12;;;;;;;;;;;;;;;17.69;46.51;100317.72;5076804;28;1098;-51
2023/07/01 02:13:38;;;;;;;;;;;;;;;17.03;47.23;100318.06;5076255;28;1047;-51
2023/07/01 02:16:04;;;;;;;;;;;;;;;16.90;46.92;100313.22;5058173;28;1046;-48
2023/07/01 02:18:29;;;;;;;;;;;;;;;16.84;46.31;100322.59;5058697;28;1243;-52
2023/07/01 02:20:55;;;;;;;;;;;;;;;16.84;45.48;100319.84;5075843;28;1107;-50
2023/07/01 02:23:21;;;;;;;;;;;;;;;16.74;45.39;100324.28;5076167;28;1189;-51
2023/07/01 02:25:46;;;;;;;;;;;;;;;16.59;45.62;100327.97;5058298;28;1337;-52
2023/07/01 02:28:13;;;;;;;;;;;;;;;16.63;45.18;100330.16;5076296;28;1909;-49
2023/07/01 02:30:39;;;;;;;;;;;;;;;16.60;44.91;100337.03;5058244;28;1091;-48
2023/07/01 02:33:04;;;;;;;;;;;;;;;16.61;44.91;100335.94;5075822;28;1171;-52
2023/07/01 02:35:30;;;;;;;;;;;;;;;17.66;45.87;100329.31;5051685;28;1149;-50
2023/07/01 02:37:56;;;;;;;;;;;;;;;17.02;46.97;100338.38;5055680;28;1246;-51
2023/07/01 02:40:21;;;;;;;;;;;;;;;16.75;46.50;100341.59;5056250;28;1490;-49
2023/07/01 02:42:47;;;;;;;;;;;;;;;16.84;46.19;100341.81;5060354;28;1035;-47
2023/07/01 02:45:13;;;;;;;;;;;;;;;17.32;47.16;100341.16;5057340;28;1113;-51
2023/07/01 02:47:39;;;;;;;;;;;;;;;17.02;47.02;100349.38;5075687;28;1047;-51
2023/07/01 02:50:04;;;;;;;;;;;;;;;16.75;46.72;100350.66;5076167;28;1905;-53
2023/07/01 02:52:30;;;;;;;;;;;;;;;16.74;46.26;100342.69;5057890;28;1233;-51
2023/07/01 02:54:56;;;;;;;;;;;;;;;17.68;46.44;100341.63;5075896;28;1047;-48
2023/07/01 02:57:22;;;;;;;;;;;;;;;17.05;47.45;100356.22;5057802;28;1171;-51
2023/07/01 02:59:48;;;;;;;;;;;;;;;16.87;46.78;100357.72;5075997;28;1026;-53
2023/07/01 03:02:14;;;;;;;;;;;;;;;16.83;46.52;100360.22;5058124;28;1934;-53
2023/07/01 03:04:39;;;;;;;;;;;;;;;16.77;46.08;100358.59;5075768;28;1139;-52
2023/07/01 03:07:05;;;;;;;;;;;;;;;16.81;45.53;100362.41;5074356;28;996;-52
2023/07/01 03:09:30;;;;;;;;;;;;;;;17.53;46.49;100359.13;5070655;28;1902;-51
2023/07/01 03:11:56;;;;;;;;;;;;;;;17.02;46.75;100354.88;5076028;28;1162;-52
2023/07/01 03:14:21;;;;;;;;;;;;;;;16.89;46.59;100350.06;5070530;28;1111;-49
2023/07/01 03:16:49;;;;;;;;;;;;;;;16.82;46.10;100347.59;5065850;28;1484;-49
2023/07/01 03:19:15;;;;;;;;;;;;;;;16.80;45.68;100357.22;5076475;28;1178;-52
2023/07/01 03:21:41;;;;;;;;;;;;;;;16.77;45.46;100348.44;5057163;28;1162;-52
2023/07/01 03:24:07;;;;;;;;;;;;;;;16.68;45.28;100357.56;5057921;28;1118;-49
2023/07/01 03:26:33;;;;;;;;;;;;;;;16.71;44.91;100352.31;5057697;28;1269;-48
2023/07/01 03:28:59;;;;;;;;;;;;;;;16.58;44.96;100351.03;5075719;28;1914;-48
2023/07/01 03:31:25;;;;;;;;;;;;;;;16.54;44.84;100357.38;5057961;28;1150;-48
2023/07/01 03:33:50;;;;;;;;;;;;;;;17.12;45.62;100353.16;5075437;28;861;-52
2023/07/01 03:36:16;;;;;;;;;;;;;;;17.40;47.14;100360.63;5071699;28;1198;-51
2023/07/01 03:38:41;;;;;;;;;;;;;;;16.98;47.15;100348.31;5055586;28;1289;-55
2023/07/01 03:41:07;;;;;;;;;;;;;;;16.97;46.33;100352.19;5075622;28;1123;-56
2023/07/01 03:43:33;;;;;;;;;;;;;;;16.80;46.22;100354.47;5075088;28;1441;-53
2023/07/01 03:45:58;;;;;;;;;;;;;;;16.64;45.94;100343.59;5075413;28;899;-53
2023/07/01 03:48:24;;;;;;;;;;;;;;;16.70;45.41;100344.38;5074980;28;1918;-53
2023/07/01 03:50:49;;;;;;;;;;;;;;;16.75;45.05;100347.91;5075535;28;947;-55
2023/07/01 03:53:15;;;;;;;;;;;;;;;17.36;46.67;100351.31;5075153;28;1127;-49
2023/07/01 03:55:40;;;;;;;;;;;;;;;16.93;47.19;100354.69;5075917;28;1115;-48
2023/07/01 03:58:06;;;;;;;;;;;;;;;16.76;46.83;100352.28;5072739;28;1347;-55
2023/07/01 04:00:31;;;;;;;;;;;;;;;16.81;46.09;100353.38;5078383;28;1043;-54
2023/07/01 04:03:05;;;;;;;;;;;;;;;16.77;45.88;100345.72;5077463;28;1062;-54
2023/07/01 04:05:31;;;;;;;;;;;;;;;16.69;45.69;100353.72;5077464;28;1007;-51
2023/07/01 04:07:56;;;;;;;;;;;;;;;16.61;45.57;100344.16;5078548;28;1984;-52
2023/07/01 04:10:22;;;;;;;;;;;;;;;16.67;45.26;100339.47;5078275;28;899;-53
2023/07/01 04:12:47;;;;;;;;;;;;;;;16.57;45.53;100337.59;5078424;28;1166;-53
2023/07/01 04:15:13;;;;;;;;;;;;;;;16.87;45.98;100342.06;5078481;28;1094;-55
2023/07/01 04:17:39;;;;;;;;;;;;;;;17.05;47.10;100343.31;5078719;28;1165;-54
2023/07/01 04:20:06;;;;;;;;;;;;;;;16.86;47.04;100340.41;5078568;28;1075;-51
2023/07/01 04:22:31;;;;;;;;;;;;;;;16.81;46.41;100342.38;5077507;28;1093;-52
2023/07/01 04:24:57;;;;;;;;;;;;;;;16.71;46.24;100344.09;5078776;28;1170;-55
2023/07/01 04:27:22;;;;;;;;;;;;;;;16.75;46.07;100347.09;5078343;28;1166;-54
2023/07/01 04:29:48;;;;;;;;;;;;;;;16.64;45.71;100338.09;5078236;28;1980;-53
2023/07/01 04:32:13;;;;;;;;;;;;;;;17.53;46.56;100339.88;5078483;28;1127;-55
2023/07/01 04:34:39;;;;;;;;;;;;;;;17.10;46.95;100342.47;5078234;28;856;-56
2023/07/01 04:37:04;;;;;;;;;;;;;;;16.85;46.57;100348.94;5059919;28;1169;-54
2023/07/01 04:39:30;;;;;;;;;;;;;;;16.81;46.21;100350.63;5078486;28;1135;-52
2023/07/01 04:41:55;;;;;;;;;;;;;;;16.80;45.81;100358.03;5078393;28;1206;-53
2023/07/01 04:44:23;;;;;;;;;;;;;;;16.83;45.55;100356.63;5078424;28;1102;-55
2023/07/01 04:46:49;;;;;;;;;;;;;;;16.73;45.64;100352.88;5077532;28;1032;-54
2023/07/01 04:49:15;;;;;;;;;;;;;;;16.72;45.56;100350.41;5077711;28;1902;-53
2023/07/01 04:51:41;;;;;;;;;;;;;;;16.72;45.46;100356.72;5077826;28;1051;-55
2023/07/01 04:54:06;;;;;;;;;;;;;;;18.12;43.84;100354.34;5078117;28;1142;-55
2023/07/01 04:56:32;;;;;;;;;;;;;;;17.57;45.44;100353.84;5078266;28;1094;-56
2023/07/01 04:58:57;;;;;;;;;;;;;;;17.36;46.32;100348.56;5077177;28;929;-56
2023/07/01 05:01:23;;;;;;;;;;;;;;;17.19;47.04;100348.97;5076528;28;992;-57
2023/07/01 05:03:48;;;;;;;;;;;;;;;17.05;47.59;100348.81;5065787;28;1043;-56
2023/07/01 05:06:14;;;;;;;;;;;;;;;16.95;47.98;100343.41;5077863;28;1046;-52
2023/07/01 05:08:39;;;;;;;;;;;;;;;16.94;48.17;100350.00;5069772;28;1897;-54
2023/07/01 05:11:05;;;;;;;;;;;;;;;16.84;48.78;100347.31;5071195;28;1039;-55
2023/07/01 05:13:30;;;;;;;;;;;;;;;16.76;49.12;100344.06;5077695;28;1012;-58
2023/07/01 05:15:56;;;;;;;;;;;;;;;16.74;49.25;100346.25;5077553;28;1042;-58
2023/07/01 05:18:21;;;;;;;;;;;;;;;16.71;49.54;100346.81;5064012;28;1214;-58
2023/07/01 05:20:47;;;;;;;;;;;;;;;16.64;49.70;100340.84;5077300;28;1011;-56
2023/07/01 05:23:12;;;;;;;;;;;;;;;16.64;50.02;100343.59;5058037;28;928;-58
2023/07/01 05:25:38;;;;;;;;;;;;;;;16.63;50.17;100344.69;5071278;28;1139;-56
2023/07/01 05:28:03;;;;;;;;;;;;;;;16.55;50.53;100345.28;5070181;28;1906;-58
2023/07/01 05:30:29;;;;;;;;;;;;;;;16.56;50.52;100342.28;5070745;28;1064;-58
2023/07/01 05:32:54;;;;;;;;;;;;;;;16.51;51.03;100346.94;5070650;28;1146;-58
2023/07/01 05:35:20;;;;;;;;;;;;;;;16.47;51.33;100354.13;5070417;28;852;-55
2023/07/01 05:37:45;;;;;;;;;;;;;;;16.61;52.52;100352.41;5057593;28;1098;-57
2023/07/01 05:40:12;;;;;;;;;;;;;;;16.48;52.56;100355.75;5069738;28;1151;-55
2023/07/01 05:42:38;;;;;;;;;;;;;;;16.42;52.83;100344.81;5076879;28;1193;-57
2023/07/01 05:45:03;;;;;;;;;;;;;;;16.38;52.71;100354.72;5077084;28;1062;-57
2023/07/01 05:47:29;;;;;;;;;;;;;;;16.40;52.87;100344.28;5076351;28;1156;-58
2023/07/01 05:49:54;;;;;;;;;;;;;;;16.37;53.01;100339.34;5076427;28;1913;-55
2023/07/01 05:52:21;;;;;;;;;;;;;;;16.50;54.16;100342.59;5076492;28;1105;-56
2023/07/01 05:54:46;;;;;;;;;;;;;;;16.38;54.67;100338.25;5063752;28;1106;-54
2023/07/01 05:57:12;;;;;;;;;;;;;;;16.49;55.42;100338.19;5076530;28;1143;-55
2023/07/01 05:59:37;;;;;;;;;;;;;;;16.37;55.35;100333.06;5075717;28;899;-55
2023/07/01 06:02:03;;;;;;;;;;;;;;;16.36;55.11;100331.41;5070530;28;1078;-55
2023/07/01 06:04:28;;;;;;;;;;;;;;;16.35;55.05;100336.06;5056901;28;1036;-55
2023/07/01 06:06:54;;;;;;;;;;;;;;;16.33;54.86;100337.47;5069672;28;1140;-56
2023/07/01 06:09:19;;;;;;;;;;;;;;;16.31;54.72;100340.47;5055977;28;1926;-53
2023/07/01 06:11:45;;;;;;;;;;;;;;;16.27;54.86;100335.84;5074701;28;1110;-53
2023/07/01 06:14:10;;;;;;;;;;;;;;;16.24;54.75;100334.47;5076652;28;1079;-53
2023/07/01 06:16:37;;;;;;;;;;;;;;;16.28;54.43;100338.28;5076040;28;1024;-53
2023/07/01 06:19:02;;;;;;;;;;;;;;;16.23;54.61;100328.19;5076013;28;1044;-51
2023/07/01 06:21:28;;;;;;;;;;;;;;;16.21;54.65;100330.38;5076572;28;1063;-54
2023/07/01 06:23:54;;;;;;;;;;;;;;;16.26;54.50;100332.28;5072112;28;910;-52
2023/07/01 06:26:20;;;;;;;;;;;;;;;16.18;54.77;100330.13;5076152;28;1205;-54
2023/07/01 06:28:45;;;;;;;;;;;;;;;16.19;54.54;100327.09;5076194;28;1980;-52
2023/07/01 06:31:11;;;;;;;;;;;;;;;16.21;54.69;100335.03;5076191;28;1098;-55
2023/07/01 06:33:38;;;;;;;;;;;;;;;16.18;54.69;100330.13;5058592;28;1245;-53
2023/07/01 06:36:04;;;;;;;;;;;;;;;16.21;54.50;100324.06;5075348;28;1078;-53
2023/07/01 06:38:29;;;;;;;;;;;;;;;16.20;55.03;100325.16;5076462;28;1101;-55
2023/07/01 06:40:55;;;;;;;;;;;;;;;16.17;54.84;100323.84;5075631;28;1130;-54
2023/07/01 06:43:20;;;;;;;;;;;;;;;16.15;54.95;100330.69;5076144;28;1067;-51
2023/07/01 06:45:46;;;;;;;;;;;;;;;16.12;55.03;100321.09;5076220;28;1115;-55
2023/07/01 06:48:11;;;;;;;;;;;;;;;16.15;55.02;100317.78;5075510;28;1984;-55
2023/07/01 06:50:37;;;;;;;;;;;;;;;16.11;55.11;100313.97;5075841;28;1189;-55
2023/07/01 06:53:03;;;;;;;;;;;;;;;16.15;54.74;100314.25;5075718;28;1071;-56
2023/07/01 06:55:28;;;;;;;;;;;;;;;16.16;54.83;100307.63;5076079;28;1122;-54
2023/07/01 06:57:54;;;;;;;;;;;;;;;16.10;54.80;100303.28;5075619;28;1066;-53
2023/07/01 07:00:19;;;;;;;;;;;;;;;16.11;54.91;100307.69;5075625;28;1179;-54
2023/07/01 07:02:45;;;;;;;;;;;;;;;16.12;54.74;100312.88;5075668;28;1134;-54
2023/07/01 07:05:10;;;;;;;;;;;;;;;16.08;54.82;100312.59;5075971;28;1058;-54
2023/07/01 07:07:36;;;;;;;;;;;;;;;16.12;54.80;100312.03;5075926;28;1138;-54
2023/07/01 07:10:03;;;;;;;;;;;;;;;16.11;54.70;100313.97;5075726;28;1906;-55
2023/07/01 07:12:28;;;;;;;;;;;;;;;16.05;54.83;100310.44;5075096;28;888;-53
2023/07/01 07:14:54;;;;;;;;;;;;;;;16.08;54.89;100307.13;5075338;28;1063;-56
2023/07/01 07:17:19;;;;;;;;;;;;;;;16.10;54.81;100312.31;5076061;28;1210;-55
2023/07/01 07:19:45;;;;;;;;;;;;;;;16.08;54.90;100315.34;5075679;28;1122;-56
2023/07/01 07:22:10;;;;;;;;;;;;;;;16.07;54.84;100315.63;5075314;28;1011;-55
2023/07/01 07:24:36;;;;;;;;;;;;;;;16.06;54.92;100313.97;5062448;28;1031;-53
2023/07/01 07:27:02;;;;;;;;;;;;;;;16.06;55.17;100317.56;5075257;28;1030;-52
2023/07/01 07:29:27;;;;;;;;;;;;;;;16.04;55.09;100317.00;5075653;28;1906;-56
2023/07/01 07:31:54;;;;;;;;;;;;;;;16.05;55.24;100315.09;5077842;28;1118;-56
2023/07/01 07:34:20;;;;;;;;;;;;;;;16.02;55.40;100321.13;5079565;28;1063;-55
2023/07/01 07:36:45;;;;;;;;;;;;;;;16.01;55.23;100323.06;5079171;28;881;-55
2023/07/01 07:39:13;;;;;;;;;;;;;;;16.06;55.15;100323.06;5079415;28;1078;-55
2023/07/01 07:41:42;;;;;;;;;;;;;;;16.05;55.06;100321.41;5079524;28;1071;-56
2023/07/01 07:44:08;;;;;;;;;;;;;;;16.01;55.17;100308.53;5079015;28;1174;-56
2023/07/01 07:46:33;;;;;;;;;;;;;;;16.07;55.04;100308.25;5079416;28;1008;-56
2023/07/01 07:48:59;;;;;;;;;;;;;;;16.05;55.07;100320.59;5078699;28;1945;-55
2023/07/01 07:51:25;;;;;;;;;;;;;;;16.01;55.20;100309.34;5078815;28;1050;-56
2023/07/01 07:53:50;;;;;;;;;;;;;;;16.04;55.09;100317.00;5078941;28;1142;-55
2023/07/01 07:56:16;;;;;;;;;;;;;;;16.01;55.52;100314.84;5078776;28;1105;-54
2023/07/01 07:58:41;;;;;;;;;;;;;;;16.04;55.22;100311.53;5079241;28;1079;-55
2023/07/01 08:01:07;;;;;;;;;;;;;;;16.01;55.57;100301.13;5078937;28;867;-55
2023/07/01 08:03:32;;;;;;;;;;;;;;;16.02;55.48;100293.72;5078593;28;1115;-56
2023/07/01 08:05:58;;;;;;;;;;;;;;;16.02;55.26;100294.53;5078888;28;1150;-54
2023/07/01 08:08:23;;;;;;;;;;;;;;;16.00;55.29;100284.97;5079046;28;1992;-52
2023/07/01 08:10:48;;;;;;;;;;;;;;;16.01;55.54;100292.09;5078797;28;1090;-54
2023/07/01 08:13:14;;;;;;;;;;;;;;;16.01;55.54;100287.41;5076875;28;850;-56
2023/07/01 08:15:40;;;;;;;;;;;;;;;15.99;55.35;100294.28;5078289;28;1050;-53
2023/07/01 08:18:06;;;;;;;;;;;;;;;15.99;55.43;100297.03;5078255;28;1130;-55
2023/07/01 08:20:31;;;;;;;;;;;;;;;16.00;55.69;100298.66;5078681;28;1190;-56
2023/07/01 08:22:57;;;;;;;;;;;;;;;16.00;55.61;100298.66;5078177;28;1170;-57
2023/07/01 08:25:22;;;;;;;;;;;;;;;16.01;55.68;100295.63;5078478;28;1058;-51
2023/07/01 08:27:48;;;;;;;;;;;;;;;15.99;55.64;100299.75;5078496;28;1063;-52
2023/07/01 08:30:14;;;;;;;;;;;;;;;15.98;55.72;100295.41;5078511;28;1909;-52
2023/07/01 08:32:40;;;;;;;;;;;;;;;15.99;55.42;100302.50;5078700;28;1071;-53
2023/07/01 08:35:06;;;;;;;;;;;;;;;15.95;55.65;100301.41;5077772;28;1055;-55
2023/07/01 08:37:31;;;;;;;;;;;;;;;15.97;55.58;100308.28;5078108;28;1134;-55
2023/07/01 08:39:57;;;;;;;;;;;;;;;15.98;55.76;100304.44;5078126;28;1078;-57
2023/07/01 08:42:31;;;;;;;;;;;;;;;15.99;55.50;100294.28;5077897;28;1222;-57
2023/07/01 08:44:56;;;;;;;;;;;;;;;15.96;55.65;100295.66;5078000;28;1210;-58
2023/07/01 08:47:22;;;;;;;;;;;;;;;15.98;55.51;100298.94;5077756;28;1121;-57
2023/07/01 08:49:48;;;;;;;;;;;;;;;15.95;55.78;100294.03;5060373;28;1987;-57
2023/07/01 08:52:13;;;;;;;;;;;;;;;15.96;55.88;100295.66;5077675;28;1099;-56
2023/07/01 08:54:39;;;;;;;;;;;;;;;15.98;55.86;100290.72;5060025;28;1190;-53
2023/07/01 08:57:05;;;;;;;;;;;;;;;16.00;55.67;100295.94;5078001;28;1106;-56
2023/07/01 08:59:30;;;;;;;;;;;;;;;15.99;55.50;100299.75;5077482;28;1114;-57
2023/07/01 09:01:56;;;;;;;;;;;;;;;15.96;55.88;100289.34;5059997;28;1106;-58
2023/07/01 09:04:21;;;;;;;;;;;;;;;15.98;55.54;100293.47;5077854;28;1024;-57
2023/07/01 09:06:47;;;;;;;;;;;;;;;15.98;55.73;100277.00;5077460;28;1154;-57
2023/07/01 09:09:12;;;;;;;;;;;;;;;16.03;55.37;100295.34;5077316;28;1913;-57
2023/07/01 09:11:38;;;;;;;;;;;;;;;15.95;55.94;100291.28;5077692;28;1186;-57
2023/07/01 09:14:03;;;;;;;;;;;;;;;15.98;55.64;100298.16;5077408;28;1137;-57
2023/07/01 09:16:30;;;;;;;;;;;;;;;15.92;55.70;100289.09;5077056;28;1194;-57
2023/07/01 09:19:05;;;;;;;;;;;;;;;15.91;56.02;100292.97;5077322;28;1097;-60
2023/07/01 09:21:32;;;;;;;;;;;;;;;15.94;55.88;100286.91;5077678;28;1065;-57
2023/07/01 09:23:58;;;;;;;;;;;;;;;16.00;55.78;100295.94;5076782;28;1055;-57
2023/07/01 09:26:24;;;;;;;;;;;;;;;15.95;55.79;100277.59;5077251;28;1075;-56
2023/07/01 09:28:49;;;;;;;;;;;;;;;17.05;55.96;100282.88;5077576;28;1974;-52
2023/07/01 09:31:15;;;;;;;;;;;;;;;17.22;57.04;100273.38;5077245;28;1190;-53
2023/07/01 09:33:41;;;;;;;;;;;;;;;16.86;57.99;100279.19;5077109;28;1151;-54
2023/07/01 09:36:07;;;;;;;;;;;;;;;16.73;58.05;100276.00;5058824;28;1109;-50
2023/07/01 09:38:33;;;;;;;;;;;;;;;16.70;58.14;100271.06;5076889;28;1038;-53
2023/07/01 09:41:17;;;;;;;;;;;;;;;16.69;58.66;100280.41;5076836;28;1167;-48
2023/07/01 09:43:42;;;;;;;;;;;;;;;16.65;58.77;100267.53;5076763;28;1113;-57
2023/07/01 09:46:08;;;;;;;;;;;;;;;16.64;58.70;100277.69;5077353;28;1075;-56
2023/07/01 09:48:34;;;;;;;;;;;;;;;16.67;58.61;100271.63;5076028;28;1910;-57
2023/07/01 09:51:03;;;;;;;;;;;;;;;16.58;58.41;100273.38;5076640;28;1074;-56
2023/07/01 09:53:29;;;;;;;;;;;;;;;16.55;58.13;100273.91;5075876;28;1270;-53
2023/07/01 09:55:55;;;;;;;;;;;;;;;16.47;57.74;100275.34;5076876;28;1023;-54
2023/07/01 09:58:20;;;;;;;;;;;;;;;16.42;57.67;100265.25;5059633;28;1255;-54
2023/07/01 10:00:46;;;;;;;;;;;;;;;16.35;57.92;100261.97;5066533;28;1147;-53
2023/07/01 10:03:11;;;;;;;;;;;;;;;16.44;57.23;100262.22;5045612;28;1186;-56
2023/07/01 10:05:37;;;;;;;;;;;;;;;16.39;57.51;100262.25;5066434;28;1098;-57
2023/07/01 10:08:03;;;;;;;;;;;;;;;16.38;57.29;100261.44;5071209;28;1044;-57
2023/07/01 10:10:28;;;;;;;;;;;;;;;16.37;57.18;100268.00;5065338;28;1082;-56
2023/07/01 10:12:54;;;;;;;;;;;;;;;16.33;57.22;100257.91;5074133;28;1122;-54
2023/07/01 10:15:26;;;;;;;;;;;;;;;16.32;57.22;100259.81;5047429;28;1096;-56
2023/07/01 10:17:52;;;;;;;;;;;;;;;16.28;57.37;100246.94;5044794;28;1265;-56
2023/07/01 10:20:34;;;;;;;;;;;;;;;16.31;57.23;100252.66;5066585;28;1115;-57
2023/07/01 10:23:00;;;;;;;;;;;;;;;16.28;57.13;100253.25;5069704;28;1107;-55
2023/07/01 10:25:28;;;;;;;;;;;;;;;16.30;57.03;100241.97;5068815;28;869;-57
2023/07/01 10:27:59;;;;;;;;;;;;;;;16.28;56.98;100258.72;5075787;28;1042;-54
2023/07/01 10:30:24;;;;;;;;;;;;;;;16.28;56.84;100250.50;5076462;28;1906;-57
2023/07/01 10:32:50;;;;;;;;;;;;;;;16.26;57.05;100249.97;5076178;28;1206;-50
2023/07/01 10:35:15;;;;;;;;;;;;;;;16.27;56.70;100250.78;5058428;28;1035;-56
2023/07/01 10:37:41;;;;;;;;;;;;;;;16.28;56.89;100247.75;5062816;28;1261;-57
2023/07/01 10:40:25;;;;;;;;;;;;;;;16.26;56.70;100244.50;5075992;28;1054;-56
2023/07/01 10:42:51;;;;;;;;;;;;;;;16.28;56.61;100233.25;5056138;28;1110;-56
2023/07/01 10:45:16;;;;;;;;;;;;;;;16.25;56.69;100234.63;5056129;28;1047;-57
2023/07/01 10:47:45;;;;;;;;;;;;;;;16.23;56.95;100231.34;5064515;28;1206;-57
2023/07/01 10:50:11;;;;;;;;;;;;;;;16.23;56.88;100229.41;5075134;28;1925;-56
2023/07/01 10:52:55;;;;;;;;;;;;;;;16.24;56.94;100228.31;5075799;28;1109;-58
2023/07/01 10:55:35;;;;;;;;;;;;;;;16.23;56.66;100229.41;5076019;28;1038;-57
2023/07/01 10:58:21;;;;;;;;;;;;;;;16.23;57.01;100218.44;5075733;28;995;-54
2023/07/01 11:00:50;;;;;;;;;;;;;;;16.22;56.82;100227.78;5065090;28;1169;-52
2023/07/01 11:03:38;;;;;;;;;;;;;;;16.27;56.69;100228.84;5072981;28;1055;-54
2023/07/01 11:06:04;;;;;;;;;;;;;;;16.24;56.92;100230.22;5079160;28;1035;-51
2023/07/01 11:08:30;;;;;;;;;;;;;;;16.25;56.77;100218.16;5061144;28;1959;-49
2023/07/01 11:10:55;;;;;;;;;;;;;;;16.21;56.74;100215.16;5072363;28;1106;-52
2023/07/01 11:13:21;;;;;;;;;;;;;;;16.25;56.64;100221.72;5074251;28;1047;-53
2023/07/01 11:16:02;;;;;;;;;;;;;;;16.20;56.99;100223.66;5072277;28;1075;-52
2023/07/01 11:18:44;;;;;;;;;;;;;;;16.25;56.60;100218.16;5080029;28;1042;-52
2023/07/01 11:21:10;;;;;;;;;;;;;;;16.19;57.03;100208.34;5079092;28;1053;-49
2023/07/01 11:23:36;;;;;;;;;;;;;;;16.21;56.97;100217.09;5070246;28;1138;-49
2023/07/01 11:26:02;;;;;;;;;;;;;;;16.21;56.94;100209.66;5055056;28;1217;-47
2023/07/01 11:28:33;;;;;;;;;;;;;;;16.20;56.79;100207.22;5059761;28;1902;-52
2023/07/01 11:31:14;;;;;;;;;;;;;;;16.20;56.95;100216.28;5058971;28;1150;-50
2023/07/01 11:33:44;;;;;;;;;;;;;;;16.19;56.89;100205.59;5059434;28;1105;-57
2023/07/01 11:36:09;;;;;;;;;;;;;;;16.19;56.85;100205.59;5079242;28;1116;-56
2023/07/01 11:38:36;;;;;;;;;;;;;;;16.20;56.77;100205.31;5079168;28;936;-57
2023/07/01 11:41:01;;;;;;;;;;;;;;;16.21;56.86;100201.44;5078910;28;1038;-57
2023/07/01 11:43:27;;;;;;;;;;;;;;;16.18;56.69;100203.94;5079104;28;1102;-54
2023/07/01 11:45:53;;;;;;;;;;;;;;;16.17;56.79;100202.31;5078938;28;1010;-56
2023/07/01 11:48:29;;;;;;;;;;;;;;;16.20;56.53;100196.25;5079058;28;1913;-55
2023/07/01 11:50:55;;;;;;;;;;;;;;;16.21;56.72;100204.19;5078329;28;975;-55
2023/07/01 11:53:20;;;;;;;;;;;;;;;16.17;56.41;100185.84;5078153;28;1087;-55
2023/07/01 11:55:46;;;;;;;;;;;;;;;16.17;56.40;100191.31;5066659;28;1123;-55
2023/07/01 11:58:30;;;;;;;;;;;;;;;16.18;56.48;100190.22;5078683;28;1051;-57
2023/07/01 12:00:56;;;;;;;;;;;;;;;16.18;56.43;100187.50;5078630;28;1042;-54
2023/07/01 12:03:22;;;;;;;;;;;;;;;16.15;56.49;100183.38;5062249;28;1194;-57
2023/07/01 12:05:47;;;;;;;;;;;;;;;16.20;56.54;100175.13;5058959;28;1094;-55
2023/07/01 12:08:13;;;;;;;;;;;;;;;16.17;56.88;100170.22;5071996;28;1984;-53
2023/07/01 12:10:39;;;;;;;;;;;;;;;16.19;56.63;100168.00;5069031;28;1182;-54
2023/07/01 12:13:05;;;;;;;;;;;;;;;16.23;56.72;100179.22;5061826;28;1106;-57
2023/07/01 12:15:32;;;;;;;;;;;;;;;16.18;56.79;100173.78;5051970;28;1009;-56
2023/07/01 12:18:16;;;;;;;;;;;;;;;16.14;56.72;100165.28;5047352;28;1206;-55
2023/07/01 12:20:42;;;;;;;;;;;;;;;16.16;56.84;100170.47;5065461;28;1190;-58
2023/07/01 12:23:07;;;;;;;;;;;;;;;16.13;57.16;100166.41;5071983;28;969;-56
2023/07/01 12:25:33;;;;;;;;;;;;;;;16.18;56.97;100160.88;5071937;28;1058;-57
2023/07/01 12:27:58;;;;;;;;;;;;;;;16.17;56.95;100163.91;5065087;28;965;-55
2023/07/01 12:30:24;;;;;;;;;;;;;;;16.18;57.11;100154.56;5078450;28;1913;-57
2023/07/01 12:32:50;;;;;;;;;;;;;;;16.16;57.02;100152.13;5065003;28;1127;-55
2023/07/01 12:35:17;;;;;;;;;;;;;;;16.18;57.00;100154.56;5078578;28;1039;-56
2023/07/01 12:37:42;;;;;;;;;;;;;;;16.17;57.19;100148.28;5078137;28;1019;-55
2023/07/01 12:40:08;;;;;;;;;;;;;;;16.15;57.14;100160.63;5065675;28;1099;-57
2023/07/01 12:42:33;;;;;;;;;;;;;;;16.18;57.03;100166.34;5064402;28;1186;-54
2023/07/01 12:44:59;;;;;;;;;;;;;;;16.17;57.14;100161.16;5078205;28;1211;-55